createdAt,value
2022-10-16T00:00:24.925Z,4.22
2022-10-16T00:05:27.697Z,4.22
2022-10-16T00:10:30.413Z,4.28
2022-10-16T00:15:37.941Z,3.95
2022-10-16T00:20:40.812Z,4.15
2022-10-16T00:26:06.612Z,4.20
2022-10-16T00:31:11.381Z,4.95
2022-10-16T00:36:17.723Z,4.65
2022-10-16T00:41:20.486Z,4.47
2022-10-16T00:46:32.388Z,4.00
2022-10-16T00:51:40.452Z,4.18
2022-10-16T00:56:44.625Z,4.10
2022-10-16T01:01:47.386Z,4.25
2022-10-16T01:07:04.761Z,3.75
2022-10-16T01:12:15.401Z,3.92
2022-10-16T01:17:44.061Z,3.92
2022-10-16T01:22:55.465Z,4.07
2022-10-16T01:28:00.437Z,3.90
2022-10-16T01:33:14.817Z,4.28
2022-10-16T01:38:23.429Z,4.30
2022-10-16T01:43:31.585Z,3.70
2022-10-16T01:48:35.492Z,4.10
2022-10-16T01:53:39.977Z,3.53
2022-10-16T01:58:48.636Z,4.15
2022-10-16T02:03:55.073Z,3.80
2022-10-16T02:08:57.673Z,3.92
2022-10-16T02:14:04.898Z,4.15
2022-10-16T02:19:08.894Z,4.20
2022-10-16T02:24:14.474Z,3.83
2022-10-16T02:29:22.584Z,4.10
2022-10-16T02:34:27.383Z,3.33
2022-10-16T02:39:30.911Z,4.15
2022-10-16T02:44:33.524Z,3.88
2022-10-16T02:49:36.046Z,3.88
2022-10-16T02:54:38.618Z,3.78
2022-10-16T02:59:41.208Z,3.70
2022-10-16T03:04:43.761Z,3.72
2022-10-16T03:09:46.297Z,3.90
2022-10-16T03:14:49.430Z,3.55
2022-10-16T03:19:52.185Z,4.28
2022-10-16T03:24:54.758Z,4.20
2022-10-16T03:29:57.310Z,4.20
2022-10-16T03:34:59.918Z,3.95
2022-10-16T03:40:02.464Z,4.47
2022-10-16T03:45:06.644Z,4.28
2022-10-16T03:50:09.820Z,4.47
2022-10-16T03:55:12.584Z,4.20
2022-10-16T04:00:15.284Z,4.57
2022-10-16T04:05:17.995Z,4.43
2022-10-16T04:10:20.637Z,4.50
2022-10-16T04:15:24.443Z,5.03
2022-10-16T04:20:27.276Z,4.40
2022-10-16T04:25:30.043Z,4.40
2022-10-16T04:30:34.582Z,4.45
2022-10-16T04:35:37.129Z,4.35
2022-10-16T04:40:39.711Z,4.60
2022-10-16T04:45:42.405Z,4.55
2022-10-16T04:50:45.058Z,4.63
2022-10-16T04:55:47.732Z,4.60
2022-10-16T05:00:50.911Z,4.90
2022-10-16T05:05:53.854Z,4.57
2022-10-16T05:10:56.401Z,4.78
2022-10-16T05:15:58.991Z,4.55
2022-10-16T05:21:01.659Z,4.40
2022-10-16T05:26:04.496Z,4.25
2022-10-16T05:31:08.272Z,4.20
2022-10-16T05:36:12.087Z,4.40
2022-10-16T05:41:15.234Z,5.30
2022-10-16T05:46:18.059Z,4.55
2022-10-16T05:51:20.610Z,4.72
2022-10-16T05:56:23.228Z,4.32
2022-10-16T06:01:26.228Z,5.03
2022-10-16T06:06:30.652Z,4.95
2022-10-16T06:11:34.465Z,4.40
2022-10-16T06:16:38.675Z,4.72
2022-10-16T06:21:41.254Z,4.43
2022-10-16T06:26:44.108Z,4.70
2022-10-16T06:31:46.686Z,5.38
2022-10-16T06:36:49.233Z,5.55
2022-10-16T06:41:52.097Z,5.20
2022-10-16T06:46:54.932Z,5.10
2022-10-16T06:51:57.614Z,5.88
2022-10-16T06:57:01.136Z,4.70
2022-10-16T07:02:03.727Z,4.72
2022-10-16T07:07:08.659Z,4.45
2022-10-16T07:12:12.153Z,4.97
2022-10-16T07:17:14.978Z,4.95
2022-10-16T07:22:17.647Z,4.82
2022-10-16T07:27:23.268Z,4.50
2022-10-16T07:32:27.062Z,5.22
2022-10-16T07:37:29.866Z,5.20
2022-10-16T07:42:32.652Z,5.40
2022-10-16T07:47:35.237Z,5.15
2022-10-16T07:52:37.772Z,4.68
2022-10-16T07:57:40.340Z,4.82
2022-10-16T08:02:42.949Z,4.75
2022-10-16T08:07:50.768Z,4.80
2022-10-16T08:12:54.041Z,4.55
2022-10-16T08:18:04.513Z,4.40
2022-10-16T08:23:07.966Z,4.93
2022-10-16T08:28:11.951Z,5.38
2022-10-16T08:33:14.918Z,4.32
2022-10-16T08:38:17.644Z,4.60
2022-10-16T08:44:01.774Z,4.18
2022-10-16T08:49:08.020Z,3.33
2022-10-16T08:54:27.865Z,3.75
2022-10-16T08:59:30.494Z,3.50
2022-10-16T09:04:56.776Z,4.22
2022-10-16T09:10:05.255Z,3.50
2022-10-16T09:15:16.729Z,4.13
2022-10-16T09:20:40.394Z,3.95
2022-10-16T09:25:46.651Z,4.43
2022-10-16T09:30:50.841Z,3.20
2022-10-16T09:35:56.927Z,3.60
2022-10-16T09:41:03.492Z,3.65
2022-10-16T09:46:09.862Z,3.53
2022-10-16T09:51:22.926Z,3.17
2022-10-16T09:56:31.897Z,3.63
2022-10-16T10:01:45.553Z,3.17
2022-10-16T10:06:59.241Z,3.72
2022-10-16T10:17:15.050Z,3.30
2022-10-16T10:22:43.232Z,3.22
2022-10-16T10:28:28.289Z,3.67
2022-10-16T10:33:39.918Z,3.85
2022-10-16T10:38:57.706Z,3.80
2022-10-16T10:44:15.503Z,3.30
2022-10-16T10:49:46.673Z,3.13
2022-10-16T10:55:03.133Z,3.80
2022-10-16T11:00:25.964Z,4.07
2022-10-16T11:05:32.254Z,3.63
2022-10-16T11:10:47.913Z,3.80
2022-10-16T11:15:54.921Z,4.10
2022-10-16T11:21:03.731Z,4.25
2022-10-16T11:26:16.517Z,4.05
2022-10-16T11:31:28.017Z,4.10
2022-10-16T11:36:42.987Z,3.70
2022-10-16T11:41:54.488Z,3.40
2022-10-16T11:47:33.793Z,3.42
2022-10-16T11:57:46.868Z,3.38
2022-10-16T12:02:55.276Z,2.92
2022-10-16T12:08:08.717Z,3.22
2022-10-16T12:13:31.356Z,3.75
2022-10-16T12:18:34.022Z,3.80
2022-10-16T12:23:48.168Z,3.75
2022-10-16T12:28:52.825Z,3.67
2022-10-16T12:34:04.372Z,4.03
2022-10-16T12:39:07.012Z,3.63
2022-10-16T12:44:35.545Z,3.70
2022-10-16T12:49:42.215Z,4.90
2022-10-16T12:54:44.866Z,4.00
2022-10-16T12:59:52.984Z,3.30
2022-10-16T13:05:17.197Z,4.03
2022-10-16T13:10:24.620Z,3.75
2022-10-16T13:15:36.855Z,4.13
2022-10-16T13:20:45.420Z,4.45
2022-10-16T13:26:27.931Z,4.18
2022-10-16T13:31:32.869Z,4.30
2022-10-16T13:36:44.319Z,4.43
2022-10-16T13:41:46.943Z,5.00
2022-10-16T13:47:01.477Z,4.82
2022-10-16T13:52:03.996Z,5.35
2022-10-16T13:57:26.407Z,4.68
2022-10-16T14:02:38.389Z,4.88
2022-10-16T14:07:41.800Z,4.43
2022-10-16T14:12:44.402Z,4.50
2022-10-16T14:17:51.690Z,4.57
2022-10-16T14:23:23.296Z,4.60
2022-10-16T14:28:25.877Z,4.70
2022-10-16T14:33:31.506Z,4.03
2022-10-16T14:38:35.000Z,4.15
2022-10-16T14:43:38.688Z,4.70
2022-10-16T14:48:51.377Z,4.18
2022-10-16T14:53:57.805Z,4.07
2022-10-16T14:59:03.598Z,4.28
2022-10-16T15:04:06.234Z,4.43
2022-10-16T15:09:09.069Z,4.28
2022-10-16T15:19:17.952Z,4.75
2022-10-16T15:24:21.613Z,4.72
2022-10-16T15:29:24.409Z,4.55
2022-10-16T15:34:26.991Z,4.45
2022-10-16T15:39:29.621Z,4.80
2022-10-16T15:44:32.164Z,4.90
2022-10-16T15:49:35.313Z,4.88
2022-10-16T15:54:37.848Z,4.68
2022-10-16T15:59:40.426Z,4.70
2022-10-16T16:04:44.304Z,4.35
2022-10-16T16:09:47.469Z,5.20
2022-10-16T16:14:50.230Z,4.65
2022-10-16T16:19:53.012Z,4.35
2022-10-16T16:24:55.641Z,4.75
2022-10-16T16:29:58.322Z,4.50
2022-10-16T16:35:00.954Z,4.70
2022-10-16T16:40:03.704Z,4.70
2022-10-16T16:45:07.067Z,4.60
2022-10-16T16:50:09.898Z,4.18
2022-10-16T16:55:12.564Z,4.22
2022-10-16T17:00:15.602Z,4.53
2022-10-16T17:05:20.025Z,4.43
2022-10-16T17:10:22.769Z,4.35
2022-10-16T17:15:25.357Z,3.97
2022-10-16T17:20:27.851Z,4.68
2022-10-16T17:25:31.988Z,4.35
2022-10-16T17:30:37.345Z,4.40
2022-10-16T17:35:44.885Z,4.28
2022-10-16T17:40:47.634Z,5.25
2022-10-16T17:45:50.449Z,4.72
2022-10-16T17:50:53.017Z,4.72
2022-10-16T17:55:59.447Z,4.70
2022-10-16T18:01:02.959Z,4.72
2022-10-16T18:06:05.717Z,4.07
2022-10-16T18:11:09.912Z,4.65
2022-10-16T18:16:15.065Z,5.05
2022-10-16T18:21:20.211Z,4.65
2022-10-16T18:26:23.633Z,4.30
2022-10-16T18:31:39.071Z,4.13
2022-10-16T18:36:45.029Z,3.97
2022-10-16T18:41:51.529Z,3.70
2022-10-16T18:46:59.264Z,4.07
2022-10-16T18:52:03.377Z,3.95
2022-10-16T18:57:06.334Z,3.47
2022-10-16T19:02:09.580Z,4.00
2022-10-16T19:07:12.193Z,3.70
2022-10-16T19:12:14.763Z,3.67
2022-10-16T19:17:17.311Z,3.53
2022-10-16T19:22:31.226Z,4.80
2022-10-16T19:27:33.928Z,3.17
2022-10-16T19:32:36.693Z,3.42
2022-10-16T19:37:39.399Z,3.90
2022-10-16T19:42:45.146Z,3.42
2022-10-16T19:47:47.813Z,3.33
2022-10-16T19:52:50.450Z,3.47
2022-10-16T19:57:52.980Z,3.97
2022-10-16T20:02:55.553Z,3.47
2022-10-16T20:07:58.140Z,3.65
2022-10-16T20:13:00.701Z,3.97
2022-10-16T20:18:03.230Z,4.43
2022-10-16T20:23:06.924Z,3.75
2022-10-16T20:28:12.464Z,4.25
2022-10-16T20:33:16.158Z,3.90
2022-10-16T20:38:19.147Z,3.75
2022-10-16T20:43:21.796Z,4.07
2022-10-16T20:48:24.382Z,4.05
2022-10-16T20:53:27.230Z,3.35
2022-10-16T20:58:29.823Z,3.10
2022-10-16T21:03:32.356Z,4.60
2022-10-16T21:08:36.665Z,4.43
2022-10-16T21:13:39.889Z,3.80
2022-10-16T21:18:44.704Z,4.30
2022-10-16T21:23:48.657Z,3.95
2022-10-16T21:28:51.261Z,3.80
2022-10-16T21:33:55.413Z,3.80
2022-10-16T21:39:08.177Z,3.78
2022-10-16T21:44:11.121Z,3.78
2022-10-16T21:49:19.496Z,3.53
2022-10-16T21:54:24.103Z,4.03
2022-10-16T21:59:26.680Z,4.35
2022-10-16T22:04:29.205Z,4.15
2022-10-16T22:09:31.880Z,4.20
2022-10-16T22:14:34.520Z,3.83
2022-10-16T22:19:37.183Z,4.18
2022-10-16T22:24:39.705Z,4.43
2022-10-16T22:29:42.307Z,4.10
2022-10-16T22:34:45.205Z,4.45
2022-10-16T22:39:47.737Z,4.10
2022-10-16T22:44:50.227Z,4.25
2022-10-16T22:49:53.048Z,4.32
2022-10-16T22:54:55.608Z,4.03
2022-10-16T22:59:58.170Z,3.83
2022-10-16T23:05:00.777Z,4.63
2022-10-16T23:10:08.508Z,4.43
2022-10-16T23:15:11.083Z,3.80
2022-10-16T23:20:13.608Z,4.43
2022-10-16T23:25:16.232Z,4.80
2022-10-16T23:30:18.766Z,3.95
2022-10-16T23:35:21.451Z,4.28
2022-10-16T23:40:24.391Z,4.38
2022-10-16T23:45:26.978Z,4.82
2022-10-16T23:50:30.524Z,4.78
